Time;durP1;ratioP1;P1;durP2;ratioP2;P2;SDS_P1;SDS_P2;PMS_P1;PMS_P2;Temp;Humidity;BMP_temperature;BMP_pressure;BME280_temperature;BME280_humidity;BME280_pressure;Samples;Min_cycle;Max_cycle;Signal;HPM_P1;HPM_P2
2022/05/17 00:02:23;;;;;;;1.20;1.00;;;26.50;45.70;;;;;;4921718;28;88684;-68
2022/05/17 00:04:52;;;;;;;1.67;0.97;;;26.50;45.70;;;;;;4921724;28;90173;-68
2022/05/17 00:07:20;;;;;;;2.63;1.03;;;26.50;45.70;;;;;;4921605;28;89012;-68
2022/05/17 00:09:48;;;;;;;1.17;1.00;;;26.50;45.80;;;;;;4922147;28;88430;-68
2022/05/17 00:12:17;;;;;;;3.37;1.10;;;26.50;45.80;;;;;;4922053;28;88552;-68
2022/05/17 00:14:45;;;;;;;1.83;1.03;;;26.50;45.80;;;;;;4922160;28;89331;-67
2022/05/17 00:17:13;;;;;;;1.10;1.00;;;26.50;45.80;;;;;;4921756;28;91666;-67
2022/05/17 00:19:41;;;;;;;1.53;0.93;;;26.50;45.80;;;;;;4921324;28;88366;-68
2022/05/17 00:22:11;;;;;;;2.80;1.10;;;26.50;45.80;;;;;;4921074;28;88664;-68
2022/05/17 00:24:39;;;;;;;2.07;1.10;;;26.50;45.80;;;;;;4921142;28;90117;-67
2022/05/17 00:27:08;;;;;;;2.63;0.80;;;26.50;45.80;;;;;;4922253;28;89118;-68
2022/05/17 00:29:36;;;;;;;1.73;1.20;;;26.50;45.90;;;;;;4924768;28;88320;-68
2022/05/17 00:32:05;;;;;;;1.00;0.83;;;26.50;46.50;;;;;;4925308;28;88590;-68
2022/05/17 00:34:34;;;;;;;1.53;1.10;;;26.50;45.90;;;;;;4924424;28;90122;-67
2022/05/17 00:37:03;;;;;;;2.10;0.97;;;26.50;45.80;;;;;;4937244;28;88263;-67
2022/05/17 00:39:32;;;;;;;1.13;0.90;;;26.50;45.80;;;;;;4934083;28;88708;-67
2022/05/17 00:42:00;;;;;;;2.30;1.00;;;26.40;45.90;;;;;;4924470;28;88418;-67
2022/05/17 00:44:42;;;;;;;1.30;0.80;;;26.40;45.80;;;;;;4924754;28;89402;-68
2022/05/17 00:47:13;;;;;;;1.23;1.13;;;26.40;45.90;;;;;;4925011;28;92313;-68
2022/05/17 00:49:42;;;;;;;1.10;0.80;;;26.40;45.90;;;;;;4924086;28;88393;-68
2022/05/17 00:52:12;;;;;;;1.87;1.00;;;26.40;45.90;;;;;;4924809;28;88496;-68
2022/05/17 00:54:41;;;;;;;2.47;1.40;;;26.40;45.90;;;;;;4924599;28;90509;-67
2022/05/17 00:57:12;;;;;;;2.70;1.33;;;26.40;45.90;;;;;;4924530;28;89166;-67
2022/05/17 00:59:41;;;;;;;1.17;0.87;;;26.40;45.90;;;;;;4925160;28;88315;-67
2022/05/17 01:02:09;;;;;;;2.60;1.00;;;26.40;45.90;;;;;;4924895;28;88624;-67
2022/05/17 01:04:37;;;;;;;1.50;1.07;;;26.40;45.90;;;;;;4924451;28;91773;-67
2022/05/17 01:07:08;;;;;;;2.00;0.87;;;26.40;45.90;;;;;;4924400;28;89367;-68
2022/05/17 01:09:36;;;;;;;1.50;1.17;;;26.40;46.00;;;;;;4924318;28;88357;-67
2022/05/17 01:12:07;;;;;;;1.73;1.10;;;26.40;46.00;;;;;;4925200;28;88484;-67
2022/05/17 01:17:21;;;;;;;2.70;1.30;;;26.40;46.00;;;;;;4936253;28;91172;-67
2022/05/17 01:19:49;;;;;;;2.03;0.90;;;26.40;46.10;;;;;;4926935;28;88506;-68
2022/05/17 01:22:21;;;;;;;1.97;0.80;;;26.40;46.10;;;;;;4942203;28;88594;-67
2022/05/17 01:24:49;;;;;;;1.03;0.97;;;26.40;46.10;;;;;;4943001;28;91431;-67
2022/05/17 01:27:20;;;;;;;2.10;1.00;;;26.40;46.10;;;;;;4928705;28;89933;-67
2022/05/17 01:29:48;;;;;;;1.13;0.90;;;26.40;46.10;;;;;;4941318;28;88129;-67
2022/05/17 01:32:16;;;;;;;1.83;1.20;;;26.40;46.10;;;;;;4943861;28;88584;-67
2022/05/17 01:34:45;;;;;;;1.27;0.80;;;26.40;46.10;;;;;;4923720;28;91599;-67
2022/05/17 01:37:13;;;;;;;1.60;0.90;;;26.30;46.00;;;;;;4927866;28;89877;-68
2022/05/17 01:39:44;;;;;;;1.27;1.00;;;26.40;46.10;;;;;;4939980;28;88821;-67
2022/05/17 01:42:13;;;;;;;1.57;0.77;;;26.30;46.00;;;;;;4943575;28;89140;-68
2022/05/17 01:44:41;;;;;;;0.63;0.63;;;26.40;46.10;;;;;;4927346;28;89818;-67
2022/05/17 01:47:09;;;;;;;1.47;1.20;;;26.40;46.00;;;;;;4923733;28;89107;-68
2022/05/17 01:49:37;;;;;;;0.70;0.70;;;26.40;46.00;;;;;;4908028;28;88657;-67
2022/05/17 01:52:06;;;;;;;5.17;2.83;;;26.40;46.00;;;;;;4931140;28;88770;-67
2022/05/17 01:54:34;;;;;;;3.67;1.70;;;26.40;46.00;;;;;;4941950;28;90125;-67
2022/05/17 01:57:03;;;;;;;3.93;1.60;;;26.40;46.00;;;;;;4925444;28;90006;-68
2022/05/17 01:59:32;;;;;;;4.97;1.90;;;26.30;45.90;;;;;;4938467;28;88533;-67
2022/05/17 02:02:01;;;;;;;1.77;1.10;;;26.40;46.00;;;;;;4923210;28;88452;-67
2022/05/17 02:04:29;;;;;;;1.77;1.37;;;26.40;46.00;;;;;;4923145;28;92530;-67
2022/05/17 02:06:57;;;;;;;3.30;1.20;;;26.40;46.00;;;;;;4926590;28;88977;-67
2022/05/17 02:09:25;;;;;;;5.00;2.00;;;26.40;46.00;;;;;;4924249;28;88498;-67
2022/05/17 02:11:54;;;;;;;2.83;1.70;;;26.30;46.70;;;;;;4935691;28;88662;-68
2022/05/17 02:14:25;;;;;;;5.13;2.43;;;26.30;46.00;;;;;;4940654;28;88552;-68
2022/05/17 02:16:53;;;;;;;4.97;3.17;;;26.30;46.00;;;;;;4922708;28;88819;-67
2022/05/17 02:19:22;;;;;;;8.83;3.77;;;26.30;46.00;;;;;;4923198;28;88232;-68
2022/05/17 02:21:50;;;;;;;8.47;3.87;;;26.30;46.00;;;;;;4923458;28;88558;-68
2022/05/17 02:24:19;;;;;;;9.37;4.03;;;26.30;46.00;;;;;;4923087;28;92322;-68
2022/05/17 02:26:47;;;;;;;8.97;5.03;;;26.30;46.00;;;;;;4922941;28;89446;-67
2022/05/17 02:29:15;;;;;;;6.37;4.00;;;26.30;46.00;;;;;;4923406;28;88445;-67
2022/05/17 02:31:44;;;;;;;7.53;4.47;;;26.30;46.00;;;;;;4938197;28;88746;-69
2022/05/17 02:34:13;;;;;;;12.93;5.67;;;26.30;46.00;;;;;;4942565;28;88582;-67
2022/05/17 02:36:41;;;;;;;14.83;5.73;;;26.30;46.00;;;;;;4929090;28;89963;-67
2022/05/17 02:39:09;;;;;;;10.10;5.40;;;26.30;46.00;;;;;;4923452;28;88498;-67
2022/05/17 02:41:37;;;;;;;10.97;5.33;;;26.30;46.00;;;;;;4927460;28;88368;-67
2022/05/17 02:44:05;;;;;;;11.00;5.87;;;26.20;45.90;;;;;;4922527;28;89598;-67
2022/05/17 02:46:34;;;;;;;13.03;6.73;;;26.20;45.90;;;;;;4926924;28;92520;-69
2022/05/17 02:49:04;;;;;;;13.20;6.43;;;26.30;46.00;;;;;;4922914;28;88268;-68
2022/05/17 02:51:34;;;;;;;19.40;8.77;;;26.20;46.00;;;;;;4935766;28;88584;-67
2022/05/17 02:54:05;;;;;;;24.13;12.20;;;26.20;46.00;;;;;;4934418;28;90269;-67
2022/05/17 02:56:33;;;;;;;13.23;7.30;;;26.20;46.00;;;;;;4925372;28;91684;-68
2022/05/17 02:59:01;;;;;;;16.93;9.23;;;26.20;46.00;;;;;;4911910;28;88309;-67
2022/05/17 03:01:29;;;;;;;15.33;8.10;;;26.20;46.00;;;;;;4935459;28;88603;-67
2022/05/17 03:03:57;;;;;;;20.13;9.27;;;26.20;46.00;;;;;;4940712;28;89517;-67
2022/05/17 03:06:27;;;;;;;20.63;9.80;;;26.30;46.10;;;;;;4925254;28;89946;-67
2022/05/17 03:08:55;;;;;;;16.63;9.33;;;26.20;46.00;;;;;;4921516;28;88445;-68
2022/05/17 03:11:25;;;;;;;22.93;11.23;;;26.30;46.00;;;;;;4924099;28;90416;-68
2022/05/17 03:13:53;;;;;;;18.73;9.53;;;26.20;46.00;;;;;;4917924;28;89739;-68
2022/05/17 03:16:21;;;;;;;17.60;8.67;;;26.20;46.00;;;;;;4915761;28;90377;-67
2022/05/17 03:18:50;;;;;;;25.83;11.47;;;26.20;46.00;;;;;;4906969;28;89679;-67
2022/05/17 03:21:18;;;;;;;20.93;11.10;;;26.20;46.10;;;;;;4910401;28;88841;-67
2022/05/17 03:23:47;;;;;;;18.33;9.13;;;26.20;46.00;;;;;;4910308;28;89456;-67
2022/05/17 03:26:15;;;;;;;22.20;10.83;;;26.20;46.10;;;;;;4907168;28;91320;-67
2022/05/17 03:28:45;;;;;;;23.77;10.83;;;26.20;46.10;;;;;;4916060;28;88703;-68
2022/05/17 03:31:13;;;;;;;24.13;11.60;;;26.20;46.10;;;;;;4916697;28;88633;-68
2022/05/17 03:33:41;;;;;;;22.13;10.77;;;26.20;46.10;;;;;;4916487;28;93933;-67
2022/05/17 03:36:10;;;;;;;21.90;10.60;;;26.20;46.10;;;;;;4919385;28;90515;-68
2022/05/17 03:38:38;;;;;;;20.67;10.80;;;26.20;46.10;;;;;;4918178;28;88449;-67
2022/05/17 03:41:07;;;;;;;19.83;9.97;;;26.20;46.10;;;;;;4923778;28;88542;-67
2022/05/17 03:43:36;;;;;;;20.07;10.53;;;26.20;46.10;;;;;;4919637;28;89955;-68
2022/05/17 03:46:04;;;;;;;20.93;11.30;;;26.20;46.20;;;;;;4919566;28;90072;-67
2022/05/17 03:48:32;;;;;;;22.37;10.53;;;26.20;46.20;;;;;;4920262;28;88493;-66
2022/05/17 03:51:00;;;;;;;20.37;10.40;;;26.20;46.20;;;;;;4921571;28;89058;-67
2022/05/17 03:53:28;;;;;;;21.47;11.53;;;26.20;46.20;;;;;;4924386;28;90677;-67
2022/05/17 03:55:56;;;;;;;20.03;10.50;;;26.20;46.20;;;;;;4919951;28;88707;-67
2022/05/17 03:58:26;;;;;;;21.93;10.80;;;26.20;46.30;;;;;;4920114;28;88378;-67
2022/05/17 04:00:55;;;;;;;17.43;9.63;;;26.20;46.30;;;;;;4919638;28;89955;-67
2022/05/17 04:03:23;;;;;;;22.03;10.57;;;26.10;46.90;;;;;;4921146;28;89700;-67
2022/05/17 04:05:51;;;;;;;15.27;9.43;;;26.20;46.30;;;;;;4932900;28;92731;-67
2022/05/17 04:08:19;;;;;;;20.63;9.73;;;26.20;46.30;;;;;;4938474;28;88559;-67
2022/05/17 04:10:47;;;;;;;16.83;11.17;;;26.20;46.30;;;;;;4933547;28;88442;-67
2022/05/17 04:13:16;;;;;;;16.87;10.37;;;26.20;46.30;;;;;;4924554;28;91114;-67
2022/05/17 04:15:45;;;;;;;19.27;10.30;;;26.20;46.40;;;;;;4925068;28;88701;-75
2022/05/17 04:18:13;;;;;;;17.23;10.37;;;26.20;46.40;;;;;;4931150;28;88394;-68
2022/05/17 04:20:45;;;;;;;16.83;9.77;;;26.20;46.40;;;;;;4922955;28;88643;-76
2022/05/17 04:23:13;;;;;;;17.47;10.00;;;26.10;46.40;;;;;;4923005;28;89596;-67
2022/05/17 04:25:41;;;;;;;16.17;9.23;;;26.10;46.50;;;;;;4921817;28;89085;-68
2022/05/17 04:28:14;;;;;;;15.73;8.50;;;26.10;46.50;;;;;;4929340;28;88595;-68
2022/05/17 04:30:45;;;;;;;16.97;8.80;;;26.10;46.50;;;;;;4919680;28;88668;-75
2022/05/17 04:33:14;;;;;;;19.27;8.73;;;26.10;46.50;;;;;;4925103;28;89596;-75
2022/05/17 04:35:42;;;;;;;14.70;8.70;;;26.10;46.60;;;;;;4927351;28;89259;-67
2022/05/17 04:38:10;;;;;;;15.70;9.00;;;26.10;46.60;;;;;;4927852;28;88583;-73
2022/05/17 04:40:41;;;;;;;13.90;8.27;;;26.10;46.60;;;;;;4923866;28;88715;-76
2022/05/17 04:43:09;;;;;;;11.23;7.57;;;26.10;46.60;;;;;;4924302;28;90174;-67
2022/05/17 04:45:38;;;;;;;14.00;7.37;;;26.10;46.50;;;;;;4926633;28;89343;-75
2022/05/17 04:48:08;;;;;;;14.53;7.43;;;26.10;46.60;;;;;;4921356;28;88368;-67
2022/05/17 04:50:37;;;;;;;15.27;7.67;;;26.10;46.50;;;;;;4926481;28;88748;-68
2022/05/17 04:53:05;;;;;;;10.80;6.97;;;26.10;46.60;;;;;;4919113;28;88797;-67
2022/05/17 04:55:33;;;;;;;14.10;7.37;;;26.10;46.50;;;;;;4925717;28;88734;-67
2022/05/17 04:58:04;;;;;;;10.53;6.63;;;26.10;46.50;;;;;;4921252;28;88286;-76
2022/05/17 05:00:32;;;;;;;11.20;5.60;;;26.10;46.50;;;;;;4926220;28;88651;-76
2022/05/17 05:03:00;;;;;;;14.27;5.67;;;26.10;46.50;;;;;;4919240;28;91674;-75
2022/05/17 05:05:34;;;;;;;11.77;6.40;;;26.10;46.50;;;;;;4928575;28;90250;-76
2022/05/17 05:08:02;;;;;;;11.77;5.17;;;26.10;46.50;;;;;;4923578;28;88452;-76
2022/05/17 05:10:30;;;;;;;10.23;5.53;;;26.10;46.50;;;;;;4924574;28;88575;-76
2022/05/17 05:12:58;;;;;;;9.97;5.30;;;26.10;46.40;;;;;;4923345;28;90085;-68
2022/05/17 05:15:26;;;;;;;8.40;4.60;;;26.10;46.40;;;;;;4926728;28;90713;-76
2022/05/17 05:17:56;;;;;;;7.13;3.83;;;26.10;46.40;;;;;;4923516;28;88536;-69
2022/05/17 05:20:24;;;;;;;6.90;4.17;;;26.10;46.40;;;;;;4925106;28;89212;-67
2022/05/17 05:22:53;;;;;;;7.20;4.23;;;26.10;46.40;;;;;;4922829;28;90825;-76
2022/05/17 05:25:22;;;;;;;6.00;3.83;;;26.10;46.40;;;;;;4924830;28;89121;-75
2022/05/17 05:27:51;;;;;;;7.17;3.60;;;26.00;46.40;;;;;;4924598;28;88488;-73
2022/05/17 05:30:22;;;;;;;7.67;3.97;;;26.00;46.40;;;;;;4919380;28;88700;-73
2022/05/17 05:32:50;;;;;;;6.33;4.17;;;26.00;46.40;;;;;;4924685;28;89764;-67
2022/05/17 05:35:20;;;;;;;7.13;3.87;;;26.00;46.40;;;;;;4926306;28;88871;-68
2022/05/17 05:37:49;;;;;;;7.73;3.17;;;26.00;46.40;;;;;;4922796;28;88604;-68
2022/05/17 05:40:18;;;;;;;7.70;3.00;;;26.00;46.40;;;;;;4923376;28;88413;-68
2022/05/17 05:42:48;;;;;;;4.87;2.87;;;26.00;46.40;;;;;;4921879;28;90113;-66
2022/05/17 05:45:16;;;;;;;7.93;3.83;;;26.00;46.40;;;;;;4922465;28;91346;-75
2022/05/17 05:47:47;;;;;;;6.40;3.17;;;25.90;46.40;;;;;;4923407;28;88588;-74
2022/05/17 05:50:15;;;;;;;8.43;3.50;;;25.90;46.50;;;;;;4925167;28;88561;-70
2022/05/17 05:52:43;;;;;;;6.67;3.10;;;25.90;46.60;;;;;;4924416;28;90913;-71
2022/05/17 05:55:14;;;;;;;5.63;3.23;;;25.90;46.60;;;;;;4922048;28;90203;-72
2022/05/17 05:57:47;;;;;;;6.50;2.77;;;26.00;46.70;;;;;;4922903;28;88527;-72
2022/05/17 06:00:16;;;;;;;2.77;1.87;;;26.00;46.70;;;;;;4921246;28;88480;-71
2022/05/17 06:02:44;;;;;;;5.57;2.10;;;26.00;46.70;;;;;;4924725;28;89574;-71
2022/05/17 06:05:12;;;;;;;7.33;2.93;;;26.00;46.70;;;;;;4922386;28;89045;-71
2022/05/17 06:07:40;;;;;;;2.77;1.43;;;26.00;46.70;;;;;;4922114;28;88549;-71
2022/05/17 06:10:09;;;;;;;2.83;2.20;;;26.00;46.60;;;;;;4922873;28;88702;-71
2022/05/17 06:12:37;;;;;;;3.33;2.00;;;26.00;46.60;;;;;;4921275;28;90551;-71
2022/05/17 06:15:08;;;;;;;2.37;1.23;;;26.00;46.60;;;;;;4922235;28;88433;-71
2022/05/17 06:17:37;;;;;;;2.87;1.47;;;26.00;46.60;;;;;;4922976;28;88791;-71
2022/05/17 06:20:06;;;;;;;1.87;1.30;;;26.00;46.60;;;;;;4922027;28;88564;-71
2022/05/17 06:22:34;;;;;;;2.47;1.10;;;26.00;46.60;;;;;;4920750;28;90650;-72
2022/05/17 06:25:02;;;;;;;1.87;0.83;;;26.00;46.60;;;;;;4921246;28;88802;-71
2022/05/17 06:27:30;;;;;;;1.60;0.83;;;26.00;46.70;;;;;;4923239;28;88469;-71
2022/05/17 06:29:58;;;;;;;2.17;1.00;;;26.00;46.70;;;;;;4923925;28;88457;-72
2022/05/17 06:32:27;;;;;;;1.53;0.70;;;25.90;46.70;;;;;;4919483;28;93332;-72
2022/05/17 06:34:55;;;;;;;3.70;1.10;;;25.90;46.70;;;;;;4921986;28;88823;-72
2022/05/17 06:37:23;;;;;;;2.20;0.90;;;25.90;46.70;;;;;;4921424;28;88318;-70
2022/05/17 06:39:51;;;;;;;2.80;1.23;;;25.90;46.80;;;;;;4920770;28;88357;-71
2022/05/17 06:42:19;;;;;;;3.23;1.97;;;26.00;46.90;;;;;;4921913;28;89654;-72
2022/05/17 06:44:47;;;;;;;1.10;0.87;;;25.90;46.80;;;;;;4919841;28;89742;-74
2022/05/17 06:47:15;;;;;;;3.60;1.10;;;25.90;46.80;;;;;;4922600;28;88808;-72
2022/05/17 06:49:44;;;;;;;8.53;1.30;;;25.90;46.80;;;;;;4922033;28;88636;-72
2022/05/17 06:52:12;;;;;;;4.67;1.97;;;25.80;46.80;;;;;;4920504;28;89567;-73
2022/05/17 06:54:41;;;;;;;6.97;3.13;;;25.80;46.90;;;;;;4922835;28;90026;-72
2022/05/17 06:57:10;;;;;;;7.00;3.97;;;25.80;47.00;;;;;;4922684;28;89110;-73
2022/05/17 06:59:39;;;;;;;7.13;3.47;;;25.80;47.10;;;;;;4921270;28;88496;-73
2022/05/17 07:02:07;;;;;;;10.50;4.23;;;25.90;47.20;;;;;;4924043;28;90624;-73
2022/05/17 07:04:35;;;;;;;9.43;3.93;;;25.90;47.30;;;;;;4922526;28;89057;-73
2022/05/17 07:07:05;;;;;;;9.57;4.57;;;26.00;47.40;;;;;;4928042;28;88222;-74
2022/05/17 07:09:33;;;;;;;15.20;4.67;;;26.00;47.40;;;;;;4930796;28;88522;-73
2022/05/17 07:14:51;;;;;;;10.20;5.23;;;26.10;47.70;;;;;;4921847;28;89449;-72
2022/05/17 07:17:20;;;;;;;10.80;5.97;;;26.20;47.80;;;;;;4921978;28;88679;-72
2022/05/17 07:19:48;;;;;;;14.80;4.93;;;26.20;48.40;;;;;;4924190;28;88606;-73
2022/05/17 07:22:18;;;;;;;10.60;6.10;;;26.20;47.80;;;;;;4924808;28;91209;-73
2022/05/17 07:24:46;;;;;;;13.87;6.57;;;26.20;47.80;;;;;;4920848;28;90128;-73
2022/05/17 07:27:14;;;;;;;15.63;7.50;;;26.20;47.90;;;;;;4923169;28;89844;-72
2022/05/17 07:29:48;;;;;;;13.03;7.13;;;26.20;47.90;;;;;;4922361;28;88532;-73
2022/05/17 07:32:16;;;;;;;14.70;7.77;;;26.30;48.00;;;;;;4922746;28;92504;-73
2022/05/17 07:34:47;;;;;;;16.13;7.47;;;26.20;48.70;;;;;;4924440;28;88451;-74
2022/05/17 07:37:17;;;;;;;16.10;7.50;;;26.30;48.10;;;;;;4929236;28;89426;-73
2022/05/17 07:39:45;;;;;;;16.00;8.63;;;26.30;48.20;;;;;;4924457;28;88526;-73
2022/05/17 07:42:13;;;;;;;14.17;8.37;;;26.30;48.10;;;;;;4929631;28;89533;-74
2022/05/17 07:44:41;;;;;;;12.90;7.40;;;26.30;48.20;;;;;;4924624;28;89956;-74
2022/05/17 07:47:15;;;;;;;18.73;8.90;;;26.40;48.20;;;;;;4925467;28;88461;-74
2022/05/17 07:49:43;;;;;;;17.77;8.80;;;26.40;48.10;;;;;;4940322;28;88480;-74
2022/05/17 07:52:12;;;;;;;17.33;8.40;;;26.40;48.10;;;;;;4944615;28;90705;-74
2022/05/17 07:54:41;;;;;;;20.77;9.10;;;26.40;48.10;;;;;;4934277;28;90008;-74
2022/05/17 07:57:09;;;;;;;17.77;9.13;;;26.50;48.20;;;;;;4926109;28;88327;-73
2022/05/17 07:59:37;;;;;;;15.93;9.90;;;26.50;48.20;;;;;;4925793;28;88579;-74
2022/05/17 08:02:06;;;;;;;19.20;9.53;;;26.50;48.20;;;;;;4925581;28;90715;-73
2022/05/17 08:04:34;;;;;;;17.67;9.43;;;26.50;48.20;;;;;;4924406;28;89993;-74
2022/05/17 08:07:02;;;;;;;15.33;8.47;;;26.50;48.10;;;;;;4928479;28;88372;-74
2022/05/17 08:09:30;;;;;;;15.40;8.80;;;26.50;48.10;;;;;;4926677;28;88479;-74
2022/05/17 08:11:59;;;;;;;18.13;9.77;;;26.50;48.10;;;;;;4924302;28;90586;-74
2022/05/17 08:14:28;;;;;;;19.53;8.80;;;26.50;48.10;;;;;;4927759;28;90011;-73
2022/05/17 08:16:56;;;;;;;16.03;9.03;;;26.50;48.10;;;;;;4930465;28;88386;-73
2022/05/17 08:19:24;;;;;;;21.87;8.87;;;26.50;48.00;;;;;;4927593;28;88467;-74
2022/05/17 08:21:52;;;;;;;11.97;7.43;;;26.60;48.10;;;;;;4925627;28;90190;-74
2022/05/17 08:24:20;;;;;;;17.00;9.13;;;26.60;48.10;;;;;;4926511;28;90123;-74
2022/05/17 08:29:35;;;;;;;17.90;8.40;;;26.60;48.00;;;;;;4924040;28;88774;-74
2022/05/17 08:34:45;;;;;;;10.17;6.53;;;26.60;48.00;;;;;;4892081;28;89158;-73
2022/05/17 08:37:13;;;;;;;13.10;7.40;;;26.60;48.60;;;;;;4930200;28;88394;-74
2022/05/17 08:39:41;;;;;;;13.20;7.53;;;26.60;48.00;;;;;;4936275;28;88527;-74
2022/05/17 08:42:13;;;;;;;12.87;7.27;;;26.60;48.00;;;;;;4925022;28;90695;-74
2022/05/17 08:44:46;;;;;;;13.37;7.30;;;26.60;48.00;;;;;;4925168;28;88974;-74
2022/05/17 08:47:19;;;;;;;12.17;7.50;;;26.60;48.00;;;;;;4923975;28;88282;-74
2022/05/17 08:50:09;;;;;;;13.00;7.17;;;26.60;48.00;;;;;;4924400;28;89383;-74
2022/05/17 08:52:38;;;;;;;11.53;6.77;;;26.70;48.00;;;;;;4924550;28;90618;-75
2022/05/17 08:55:18;;;;;;;13.40;7.27;;;26.70;48.70;;;;;;4923449;28;88651;-74
2022/05/17 08:57:48;;;;;;;10.60;6.53;;;26.60;47.90;;;;;;4922598;28;88400;-74
2022/05/17 09:00:19;;;;;;;14.37;6.23;;;26.70;48.00;;;;;;4923525;28;88488;-75
2022/05/17 09:02:50;;;;;;;10.97;6.27;;;26.70;47.90;;;;;;4922657;28;91172;-74
2022/05/17 09:05:33;;;;;;;7.57;4.73;;;26.70;47.90;;;;;;4922784;28;88979;-74
2022/05/17 09:08:09;;;;;;;9.77;5.13;;;26.70;47.80;;;;;;4923727;28;89243;-74
2022/05/17 09:10:38;;;;;;;8.07;4.17;;;26.70;47.80;;;;;;4923657;28;88655;-74
2022/05/17 09:13:10;;;;;;;6.33;4.37;;;26.70;47.70;;;;;;4923353;28;90337;-75
2022/05/17 09:15:39;;;;;;;7.70;4.53;;;26.70;47.70;;;;;;4923145;28;91250;-74
2022/05/17 09:18:09;;;;;;;7.83;4.27;;;26.70;47.60;;;;;;4922656;28;88816;-74
2022/05/17 09:20:38;;;;;;;9.53;3.60;;;26.70;47.50;;;;;;4923444;28;88644;-74
2022/05/17 09:23:06;;;;;;;7.07;3.93;;;26.70;47.50;;;;;;4923305;28;89403;-74
2022/05/17 09:25:49;;;;;;;5.00;3.20;;;26.70;47.50;;;;;;4923592;28;89516;-74
2022/05/17 09:28:19;;;;;;;5.87;3.73;;;26.70;47.50;;;;;;4923176;28;88247;-74
2022/05/17 09:30:49;;;;;;;6.50;3.73;;;26.70;47.40;;;;;;4922665;28;88515;-73
2022/05/17 09:33:21;;;;;;;4.40;2.67;;;26.70;47.40;;;;;;4922465;28;90690;-75
2022/05/17 09:35:57;;;;;;;4.47;2.73;;;26.70;47.30;;;;;;4922758;28;88254;-74
2022/05/17 09:38:25;;;;;;;4.27;2.80;;;26.70;47.30;;;;;;4923300;28;88487;-74
2022/05/17 09:40:59;;;;;;;4.63;2.50;;;26.80;47.30;;;;;;4923626;28;88453;-74
2022/05/17 09:43:40;;;;;;;4.53;2.53;;;26.70;47.20;;;;;;4922423;28;89682;-73
2022/05/17 09:46:13;;;;;;;5.17;2.23;;;26.80;47.20;;;;;;4922797;28;90204;-74
2022/05/17 09:54:28;;;;;;;4.17;2.17;;;26.80;47.00;;;;;;4921949;28;91643;-75
2022/05/17 09:57:14;;;;;;;3.37;2.03;;;26.80;47.00;;;;;;4922134;28;92849;-74
2022/05/17 09:59:42;;;;;;;5.10;1.53;;;26.80;47.00;;;;;;4922309;28;88828;-74
2022/05/17 10:02:39;;;;;;;2.37;1.70;;;26.80;47.00;;;;;;4922990;28;88530;-74
2022/05/17 10:05:20;;;;;;;4.50;1.80;;;26.80;47.00;;;;;;4922218;28;90725;-74
2022/05/17 10:07:53;;;;;;;3.43;1.63;;;26.80;46.90;;;;;;4921980;28;90184;-74
2022/05/17 10:10:23;;;;;;;4.10;1.47;;;26.80;46.80;;;;;;4921826;28;88828;-74
2022/05/17 10:12:51;;;;;;;3.27;1.43;;;26.90;46.80;;;;;;4922121;28;88218;-74
2022/05/17 10:15:19;;;;;;;2.83;1.30;;;26.90;46.70;;;;;;4922473;28;90710;-74
2022/05/17 10:17:51;;;;;;;1.60;1.10;;;26.90;46.70;;;;;;4922473;28;90705;-74
2022/05/17 10:20:23;;;;;;;2.03;1.30;;;26.90;46.60;;;;;;4921414;28;88348;-74
2022/05/17 10:22:59;;;;;;;2.70;1.07;;;27.00;46.70;;;;;;4919833;28;88626;-74
2022/05/17 10:25:29;;;;;;;1.73;1.03;;;27.00;46.70;;;;;;4921575;28;90237;-74
2022/05/17 10:27:59;;;;;;;2.07;0.90;;;27.00;46.60;;;;;;4921744;28;90040;-74
2022/05/17 10:30:35;;;;;;;3.93;1.17;;;27.10;46.60;;;;;;4921911;28;88810;-73
2022/05/17 10:33:06;;;;;;;1.00;0.90;;;27.10;46.50;;;;;;4921963;28;88574;-74
2022/05/17 10:35:35;;;;;;;1.20;0.83;;;27.10;46.50;;;;;;4921904;28;90766;-73
2022/05/17 10:38:07;;;;;;;3.27;1.13;;;27.10;46.40;;;;;;4921843;28;88533;-74
2022/05/17 10:40:39;;;;;;;2.20;1.30;;;27.10;46.40;;;;;;4922207;28;88798;-74
2022/05/17 10:43:16;;;;;;;1.37;1.10;;;27.10;46.40;;;;;;4922256;28;88562;-74
2022/05/17 10:45:46;;;;;;;2.47;0.90;;;27.10;46.30;;;;;;4921998;28;93368;-74
2022/05/17 10:48:20;;;;;;;2.93;0.67;;;27.20;46.40;;;;;;4921123;28;90293;-73
2022/05/17 10:50:51;;;;;;;0.80;0.60;;;27.10;46.30;;;;;;4922063;28;88990;-74
2022/05/17 10:53:33;;;;;;;1.67;0.90;;;27.20;46.40;;;;;;4921455;28;89663;-73
2022/05/17 10:56:07;;;;;;;1.23;0.70;;;27.20;46.40;;;;;;4921104;28;92649;-74
2022/05/17 10:58:41;;;;;;;2.07;1.00;;;27.20;46.30;;;;;;4921744;28;88943;-74
2022/05/17 11:01:13;;;;;;;1.93;1.23;;;27.10;46.30;;;;;;4921130;28;88299;-73
2022/05/17 11:04:19;;;;;;;1.43;0.83;;;27.20;46.40;;;;;;4921266;28;88477;-74
2022/05/17 11:06:52;;;;;;;1.20;0.67;;;27.10;46.40;;;;;;4921253;28;90604;-73
2022/05/17 11:09:23;;;;;;;2.83;0.93;;;27.10;46.20;;;;;;4920547;28;91854;-73
2022/05/17 11:12:05;;;;;;;2.77;0.87;;;27.20;46.30;;;;;;4920545;28;88838;-74
2022/05/17 11:14:41;;;;;;;0.80;0.77;;;27.20;46.30;;;;;;4921683;28;88608;-74
2022/05/17 11:17:25;;;;;;;0.80;0.80;;;27.20;46.20;;;;;;4921476;28;89885;-74
2022/05/17 11:20:01;;;;;;;1.10;0.87;;;27.20;46.20;;;;;;4921497;28;88738;-74
2022/05/17 11:22:37;;;;;;;2.37;0.93;;;27.30;46.30;;;;;;4921515;28;92171;-74
2022/05/17 11:25:29;;;;;;;0.90;0.70;;;27.30;46.90;;;;;;4921108;28;88647;-73
2022/05/17 11:28:07;;;;;;;0.97;0.77;;;27.30;46.20;;;;;;4920308;28;90698;-74
2022/05/17 11:30:38;;;;;;;2.60;0.77;;;27.30;46.20;;;;;;4920301;28;93262;-74
2022/05/17 11:33:14;;;;;;;1.10;0.90;;;27.40;46.20;;;;;;4920417;28;88365;-74
2022/05/17 11:35:51;;;;;;;1.30;0.83;;;27.30;46.20;;;;;;4919799;28;88168;-74
2022/05/17 11:38:21;;;;;;;1.77;0.93;;;27.40;46.20;;;;;;4917636;28;90699;-74
2022/05/17 11:40:56;;;;;;;0.70;0.67;;;27.40;46.20;;;;;;4919947;28;90325;-74
2022/05/17 11:43:48;;;;;;;1.33;0.80;;;27.40;46.20;;;;;;4920684;28;89678;-73
2022/05/17 11:46:42;;;;;;;2.10;0.97;;;27.40;46.20;;;;;;4921365;28;88385;-74
2022/05/17 11:49:47;;;;;;;1.50;1.20;;;27.40;46.20;;;;;;4921838;28;90192;-73
2022/05/17 11:52:27;;;;;;;1.00;0.90;;;27.40;46.20;;;;;;4918758;28;88723;-74
2022/05/17 11:54:55;;;;;;;1.80;0.90;;;27.40;46.20;;;;;;4916109;28;88621;-74
2022/05/17 11:58:00;;;;;;;3.67;1.43;;;27.40;46.20;;;;;;4918164;28;88436;-73
2022/05/17 12:00:49;;;;;;;2.23;1.03;;;27.40;46.30;;;;;;4921637;28;90533;-73
2022/05/17 12:03:36;;;;;;;2.27;1.40;;;27.40;46.30;;;;;;4917532;28;89791;-73
2022/05/17 12:06:07;;;;;;;2.00;1.50;;;27.40;46.40;;;;;;4932273;28;88898;-73
2022/05/17 12:08:39;;;;;;;5.50;1.20;;;27.40;46.40;;;;;;4940340;28;88383;-74
2022/05/17 12:11:23;;;;;;;1.50;1.27;;;27.40;46.40;;;;;;4923873;28;90927;-73
2022/05/17 12:13:53;;;;;;;2.23;1.30;;;27.30;46.40;;;;;;4921040;28;90193;-74
2022/05/17 12:16:23;;;;;;;4.20;1.50;;;27.40;46.40;;;;;;4916840;28;90369;-73
2022/05/17 12:18:53;;;;;;;5.03;1.40;;;27.40;46.40;;;;;;4920160;28;88673;-74
2022/05/17 12:21:36;;;;;;;1.83;1.30;;;27.40;46.40;;;;;;4919224;28;92447;-69
2022/05/17 12:24:14;;;;;;;2.40;1.70;;;27.40;46.40;;;;;;4919690;28;89974;-69
2022/05/17 12:27:15;;;;;;;2.40;1.33;;;27.40;46.40;;;;;;4922926;28;88816;-69
2022/05/17 12:32:38;;;;;;;3.53;1.70;;;27.40;46.30;;;;;;4923826;28;90336;-69
2022/05/17 12:35:08;;;;;;;3.90;1.50;;;27.40;46.30;;;;;;4922137;28;89166;-69
2022/05/17 12:37:40;;;;;;;3.00;1.53;;;27.40;46.40;;;;;;4922974;28;90176;-69
2022/05/17 12:43:03;;;;;;;5.10;1.73;;;27.50;46.40;;;;;;4922518;28;89523;-69
2022/05/17 12:45:33;;;;;;;2.63;1.87;;;27.50;46.30;;;;;;4923208;28;89996;-69
2022/05/17 12:48:03;;;;;;;3.00;1.70;;;27.50;46.30;;;;;;4922657;28;88628;-70
2022/05/17 12:50:38;;;;;;;2.17;1.37;;;27.50;46.30;;;;;;4923089;28;88492;-69
2022/05/17 12:53:12;;;;;;;5.93;1.30;;;27.50;46.40;;;;;;4923166;28;90621;-70
2022/05/17 12:55:45;;;;;;;3.73;1.90;;;27.50;46.40;;;;;;4922303;28;89002;-69
2022/05/17 12:58:13;;;;;;;1.50;1.40;;;27.50;46.40;;;;;;4921060;28;88981;-70
2022/05/17 13:00:41;;;;;;;2.23;1.30;;;27.50;46.40;;;;;;4920027;28;88461;-69
2022/05/17 13:03:16;;;;;;;1.70;1.10;;;27.50;46.40;;;;;;4922192;28;92027;-69
2022/05/17 13:05:48;;;;;;;2.37;1.23;;;27.60;46.50;;;;;;4922198;28;89988;-75
2022/05/17 13:08:23;;;;;;;1.87;1.37;;;27.60;46.40;;;;;;4925559;28;90670;-69
2022/05/17 13:11:00;;;;;;;0.87;0.87;;;27.70;46.40;;;;;;4918211;28;88679;-71
2022/05/17 13:13:31;;;;;;;2.47;0.93;;;27.60;46.40;;;;;;4918517;28;90129;-69
2022/05/17 13:16:00;;;;;;;1.20;1.10;;;27.70;46.40;;;;;;4921938;28;89833;-69
2022/05/17 13:18:33;;;;;;;2.00;1.00;;;27.70;46.40;;;;;;4919705;28;88508;-70
2022/05/17 13:21:03;;;;;;;4.13;1.00;;;27.80;46.40;;;;;;4923719;28;88959;-69
2022/05/17 13:23:31;;;;;;;2.23;0.97;;;27.90;46.40;;;;;;4925944;28;90586;-69
2022/05/17 13:26:03;;;;;;;1.87;1.00;;;27.90;46.30;;;;;;4923445;28;89455;-70